createdAt,value
2022-07-25T00:02:17.512Z,17.46
2022-07-25T00:04:46.216Z,17.46
2022-07-25T00:07:16.244Z,17.45
2022-07-25T00:09:44.821Z,17.44
2022-07-25T00:12:14.393Z,17.44
2022-07-25T00:14:43.115Z,17.43
2022-07-25T00:17:11.799Z,17.41
2022-07-25T00:19:40.689Z,17.38
2022-07-25T00:22:09.451Z,17.37
2022-07-25T00:24:38.574Z,17.36
2022-07-25T00:27:06.849Z,17.36
2022-07-25T00:29:36.559Z,17.36
2022-07-25T00:32:06.064Z,17.34
2022-07-25T00:34:34.521Z,17.33
2022-07-25T00:37:03.232Z,17.33
2022-07-25T00:39:32.048Z,17.32
2022-07-25T00:42:04.476Z,17.31
2022-07-25T00:44:33.898Z,17.30
2022-07-25T00:47:02.383Z,17.29
2022-07-25T00:49:31.062Z,17.28
2022-07-25T00:52:00.299Z,17.26
2022-07-25T00:54:29.359Z,17.25
2022-07-25T00:56:57.925Z,17.24
2022-07-25T00:59:26.576Z,17.23
2022-07-25T01:01:55.387Z,17.23
2022-07-25T01:04:24.301Z,17.23
2022-07-25T01:06:52.912Z,17.23
2022-07-25T01:09:21.698Z,17.22
2022-07-25T01:11:50.283Z,17.23
2022-07-25T01:14:18.840Z,17.24
2022-07-25T01:16:47.355Z,17.27
2022-07-25T01:19:17.509Z,17.28
2022-07-25T01:21:46.229Z,17.30
2022-07-25T01:24:14.460Z,17.32
2022-07-25T01:26:43.089Z,17.35
2022-07-25T01:29:11.467Z,17.35
2022-07-25T01:31:39.800Z,17.35
2022-07-25T01:34:08.872Z,17.34
2022-07-25T01:36:37.731Z,17.33
2022-07-25T01:39:06.109Z,17.30
2022-07-25T01:41:34.893Z,17.29
2022-07-25T01:44:04.507Z,17.29
2022-07-25T01:46:33.146Z,17.28
2022-07-25T01:49:01.973Z,17.29
2022-07-25T01:51:30.664Z,17.29
2022-07-25T01:53:59.141Z,17.29
2022-07-25T01:56:28.629Z,17.32
2022-07-25T01:59:00.429Z,17.33
2022-07-25T02:01:29.055Z,17.36
2022-07-25T02:03:57.573Z,17.37
2022-07-25T02:06:26.261Z,17.39
2022-07-25T02:08:54.641Z,17.42
2022-07-25T02:11:23.180Z,17.45
2022-07-25T02:13:51.731Z,17.48
2022-07-25T02:16:20.233Z,17.51
2022-07-25T02:18:58.259Z,17.54
2022-07-25T02:21:26.767Z,17.58
2022-07-25T02:23:55.071Z,17.63
2022-07-25T02:26:23.701Z,17.64
2022-07-25T02:28:52.210Z,17.67
2022-07-25T02:31:20.857Z,17.69
2022-07-25T02:33:49.543Z,17.70
2022-07-25T02:36:17.863Z,17.72
2022-07-25T02:38:46.646Z,17.74
2022-07-25T02:41:15.467Z,17.77
2022-07-25T02:43:43.917Z,17.79
2022-07-25T02:46:12.249Z,17.82
2022-07-25T02:48:40.906Z,17.84
2022-07-25T02:51:09.380Z,17.85
2022-07-25T02:53:56.633Z,17.88
2022-07-25T02:56:30.330Z,17.90
2022-07-25T02:59:00.302Z,17.91
2022-07-25T03:01:29.151Z,17.91
2022-07-25T03:03:57.625Z,17.91
2022-07-25T03:06:26.355Z,17.91
2022-07-25T03:08:54.895Z,17.89
2022-07-25T03:11:23.385Z,17.87
2022-07-25T03:13:51.804Z,17.83
2022-07-25T03:16:20.455Z,17.80
2022-07-25T03:18:49.172Z,17.81
2022-07-25T03:21:17.392Z,17.83
2022-07-25T03:23:49.134Z,17.87
2022-07-25T03:26:21.195Z,17.92
2022-07-25T03:28:50.084Z,17.97
2022-07-25T03:31:18.604Z,18.02
2022-07-25T03:33:47.231Z,18.08
2022-07-25T03:36:15.973Z,18.13
2022-07-25T03:38:44.390Z,18.21
2022-07-25T03:41:13.673Z,18.29
2022-07-25T03:43:42.481Z,18.34
2022-07-25T03:46:11.077Z,18.37
2022-07-25T03:48:39.689Z,18.42
2022-07-25T03:51:08.821Z,18.47
2022-07-25T03:53:57.029Z,18.53
2022-07-25T03:56:26.184Z,18.62
2022-07-25T03:58:55.283Z,18.68
2022-07-25T04:01:23.627Z,18.77
2022-07-25T04:03:54.009Z,18.83
2022-07-25T04:06:23.560Z,18.87
2022-07-25T04:08:52.891Z,18.93
2022-07-25T04:11:21.844Z,18.99
2022-07-25T04:13:51.109Z,19.06
2022-07-25T04:16:22.490Z,19.13
2022-07-25T04:18:52.372Z,19.17
2022-07-25T04:21:21.162Z,19.22
2022-07-25T04:23:50.030Z,19.29
2022-07-25T04:26:19.686Z,19.34
2022-07-25T04:28:48.240Z,19.42
2022-07-25T04:31:17.234Z,19.46
2022-07-25T04:33:46.641Z,19.48
2022-07-25T04:36:15.086Z,19.49
2022-07-25T04:38:43.432Z,19.53
2022-07-25T04:41:12.276Z,19.54
2022-07-25T04:43:44.890Z,19.56
2022-07-25T04:46:21.522Z,19.58
2022-07-25T04:48:50.776Z,19.59
2022-07-25T04:51:19.288Z,19.62
2022-07-25T04:53:47.867Z,19.66
2022-07-25T04:56:16.655Z,19.72
2022-07-25T04:58:45.042Z,19.79
2022-07-25T05:01:13.683Z,19.88
2022-07-25T05:03:50.612Z,19.97
2022-07-25T05:06:19.926Z,20.06
2022-07-25T05:08:48.407Z,20.15
2022-07-25T05:11:16.763Z,20.25
2022-07-25T05:13:45.647Z,20.35
2022-07-25T05:16:14.399Z,20.47
2022-07-25T05:18:42.739Z,20.58
2022-07-25T05:21:12.886Z,20.70
2022-07-25T05:23:42.468Z,20.79
2022-07-25T05:26:10.717Z,20.85
2022-07-25T05:28:39.914Z,20.92
2022-07-25T05:31:08.346Z,20.98
2022-07-25T05:33:36.875Z,21.02
2022-07-25T05:36:06.432Z,21.05
2022-07-25T05:38:35.274Z,21.09
2022-07-25T05:41:04.571Z,21.13
2022-07-25T05:43:33.152Z,21.20
2022-07-25T05:46:03.398Z,21.26
2022-07-25T05:48:32.117Z,21.33
2022-07-25T05:51:00.700Z,21.39
2022-07-25T05:53:29.207Z,21.45
2022-07-25T05:55:57.605Z,21.51
2022-07-25T05:58:29.939Z,21.58
2022-07-25T06:00:59.176Z,21.64
2022-07-25T06:03:28.116Z,21.71
2022-07-25T06:05:56.971Z,21.78
2022-07-25T06:08:27.792Z,21.85
2022-07-25T06:10:58.664Z,21.90
2022-07-25T06:13:28.104Z,21.98
2022-07-25T06:15:57.143Z,22.05
2022-07-25T06:18:27.072Z,22.13
2022-07-25T06:20:55.452Z,22.21
2022-07-25T06:23:24.108Z,22.28
2022-07-25T06:25:56.584Z,22.35
2022-07-25T06:28:25.087Z,22.41
2022-07-25T06:30:53.375Z,22.49
2022-07-25T06:33:22.176Z,22.57
2022-07-25T06:35:50.611Z,22.42
2022-07-25T06:38:19.010Z,22.18
2022-07-25T06:40:47.871Z,21.97
2022-07-25T06:43:16.251Z,21.83
2022-07-25T06:45:47.668Z,21.73
2022-07-25T06:48:17.924Z,21.73
2022-07-25T06:50:46.510Z,21.99
2022-07-25T06:53:14.986Z,22.31
2022-07-25T06:55:43.775Z,22.56
2022-07-25T06:58:12.004Z,22.76
2022-07-25T07:00:40.764Z,22.95
2022-07-25T07:03:09.795Z,23.09
2022-07-25T07:05:39.953Z,22.97
2022-07-25T07:08:08.468Z,22.80
2022-07-25T07:10:37.289Z,22.70
2022-07-25T07:13:14.102Z,22.65
2022-07-25T07:15:50.294Z,22.63
2022-07-25T07:18:19.871Z,22.62
2022-07-25T07:20:48.767Z,22.59
2022-07-25T07:23:17.914Z,22.56
2022-07-25T07:25:47.558Z,22.57
2022-07-25T07:28:16.662Z,22.61
2022-07-25T07:31:15.257Z,22.65
2022-07-25T07:33:35.637Z,22.69
2022-07-25T07:36:04.111Z,22.72
2022-07-25T07:38:32.345Z,22.78
2022-07-25T07:41:01.083Z,22.86
2022-07-25T07:43:32.009Z,22.93
2022-07-25T07:46:01.552Z,22.99
2022-07-25T07:48:32.600Z,23.05
2022-07-25T07:51:02.762Z,23.10
2022-07-25T07:53:50.934Z,23.19
2022-07-25T07:56:19.752Z,23.29
2022-07-25T07:58:48.430Z,23.37
2022-07-25T08:01:17.214Z,23.45
2022-07-25T08:03:45.676Z,23.53
2022-07-25T08:06:14.358Z,23.59
2022-07-25T08:08:42.797Z,23.67
2022-07-25T08:11:11.217Z,23.76
2022-07-25T08:13:39.926Z,23.85
2022-07-25T08:16:08.990Z,23.94
2022-07-25T08:18:37.610Z,24.01
2022-07-25T08:21:07.290Z,24.06
2022-07-25T08:23:39.141Z,24.12
2022-07-25T08:26:08.050Z,24.20
2022-07-25T08:28:36.550Z,24.27
2022-07-25T08:31:05.519Z,24.35
2022-07-25T08:33:34.716Z,24.44
2022-07-25T08:36:04.213Z,24.52
2022-07-25T08:38:32.698Z,24.60
2022-07-25T08:41:03.115Z,24.67
2022-07-25T08:43:33.200Z,24.74
2022-07-25T08:46:02.649Z,24.83
2022-07-25T08:48:31.585Z,24.93
2022-07-25T08:51:00.460Z,25.04
2022-07-25T08:53:33.506Z,25.16
2022-07-25T08:56:13.421Z,25.27
2022-07-25T08:58:44.988Z,25.37
2022-07-25T09:01:14.703Z,25.47
2022-07-25T09:03:44.407Z,25.57
2022-07-25T09:06:18.978Z,25.65
2022-07-25T09:09:00.479Z,25.73
2022-07-25T09:11:35.217Z,25.82
2022-07-25T09:14:09.568Z,25.91
2022-07-25T09:16:41.219Z,25.97
2022-07-25T09:19:17.792Z,26.02
2022-07-25T09:21:59.548Z,26.10
2022-07-25T09:24:28.785Z,26.21
2022-07-25T09:26:59.837Z,26.28
2022-07-25T09:29:31.100Z,26.34
2022-07-25T09:32:01.785Z,26.39
2022-07-25T09:34:37.944Z,26.41
2022-07-25T09:37:09.871Z,26.41
2022-07-25T09:39:45.532Z,26.48
2022-07-25T09:42:16.721Z,26.56
2022-07-25T09:44:57.515Z,26.66
2022-07-25T09:47:26.602Z,26.80
2022-07-25T09:49:55.778Z,26.93
2022-07-25T09:52:24.362Z,27.08
2022-07-25T09:54:54.910Z,27.24
2022-07-25T09:57:24.395Z,27.34
2022-07-25T09:59:56.300Z,27.45
2022-07-25T10:02:40.777Z,27.60
2022-07-25T10:05:18.510Z,27.75
2022-07-25T10:07:50.485Z,27.89
2022-07-25T10:10:32.016Z,28.03
2022-07-25T10:13:10.725Z,28.14
2022-07-25T10:15:44.180Z,28.26
2022-07-25T10:18:14.297Z,28.41
2022-07-25T10:20:44.719Z,28.52
2022-07-25T10:23:27.193Z,28.61
2022-07-25T10:26:15.711Z,28.78
2022-07-25T10:28:47.540Z,28.99
2022-07-25T10:31:30.447Z,29.16
2022-07-25T10:34:02.324Z,29.23
2022-07-25T10:36:51.477Z,29.26
2022-07-25T10:39:21.595Z,29.32
2022-07-25T10:42:00.443Z,29.44
2022-07-25T10:44:40.009Z,29.55
2022-07-25T10:47:13.464Z,29.58
2022-07-25T10:50:15.282Z,29.62
2022-07-25T10:52:42.962Z,29.69
2022-07-25T10:55:22.280Z,29.80
2022-07-25T10:58:21.847Z,29.98
2022-07-25T11:00:51.520Z,30.10
2022-07-25T11:03:22.155Z,30.17
2022-07-25T11:05:54.875Z,30.22
2022-07-25T11:08:35.186Z,30.30
2022-07-25T11:11:03.712Z,30.47
2022-07-25T11:13:37.562Z,30.65
2022-07-25T11:16:06.766Z,30.89
2022-07-25T11:18:41.011Z,31.20
2022-07-25T11:21:10.041Z,31.55
2022-07-25T11:23:40.560Z,31.69
2022-07-25T11:26:12.100Z,31.69
2022-07-25T11:28:45.723Z,31.73
2022-07-25T11:31:17.059Z,31.80
2022-07-25T11:33:48.359Z,31.83
2022-07-25T11:36:17.696Z,31.89
2022-07-25T11:38:49.377Z,32.02
2022-07-25T11:41:29.283Z,32.22
2022-07-25T11:43:57.901Z,32.29
2022-07-25T11:46:26.451Z,32.21
2022-07-25T11:49:05.779Z,32.19
2022-07-25T11:51:39.217Z,32.29
2022-07-25T11:54:10.475Z,32.43
2022-07-25T11:56:42.940Z,32.60
2022-07-25T11:59:12.558Z,32.92
2022-07-25T12:01:43.155Z,33.37
2022-07-25T12:04:14.565Z,33.78
2022-07-25T12:06:45.236Z,34.18
2022-07-25T12:09:21.759Z,34.42
2022-07-25T12:11:50.291Z,34.62
2022-07-25T12:14:18.696Z,34.87
2022-07-25T12:16:48.090Z,35.25
2022-07-25T12:19:22.246Z,35.81
2022-07-25T12:21:51.179Z,36.41
2022-07-25T12:24:19.511Z,36.77
2022-07-25T12:26:47.954Z,36.99
2022-07-25T12:29:16.488Z,37.21
2022-07-25T12:31:45.101Z,37.47
2022-07-25T12:34:13.407Z,37.72
2022-07-25T12:36:45.413Z,37.94
2022-07-25T12:39:14.126Z,38.23
2022-07-25T12:41:43.048Z,38.45
2022-07-25T12:44:11.666Z,38.59
2022-07-25T12:58:15.553Z,37.76
2022-07-25T13:00:44.729Z,37.62
2022-07-25T13:03:14.495Z,37.68
2022-07-25T13:05:43.188Z,37.83
2022-07-25T13:08:11.867Z,37.81
2022-07-25T13:10:40.350Z,37.74
2022-07-25T13:13:09.172Z,37.64
2022-07-25T13:15:38.339Z,37.59
2022-07-25T13:18:06.978Z,37.68
2022-07-25T13:20:37.716Z,37.89
2022-07-25T13:23:06.330Z,38.20
2022-07-25T13:25:35.127Z,38.55
2022-07-25T13:28:08.575Z,38.87
2022-07-25T13:30:40.285Z,39.16
2022-07-25T13:33:11.013Z,39.40
2022-07-25T13:35:39.996Z,39.53
2022-07-25T13:38:12.176Z,39.58
2022-07-25T13:40:42.394Z,39.53
2022-07-25T13:43:13.221Z,39.52
2022-07-25T13:45:42.633Z,39.65
2022-07-25T13:48:28.812Z,39.84
2022-07-25T13:50:59.646Z,39.97
2022-07-25T13:53:30.588Z,39.93
2022-07-25T13:56:00.142Z,39.66
2022-07-25T13:58:29.000Z,39.26
2022-07-25T14:00:57.860Z,38.96
2022-07-25T14:03:26.376Z,38.74
2022-07-25T14:05:54.828Z,38.51
2022-07-25T14:08:23.764Z,38.21
2022-07-25T14:10:52.941Z,37.88
2022-07-25T14:13:21.834Z,37.49
2022-07-25T14:15:50.722Z,37.08
2022-07-25T14:18:19.172Z,36.78
2022-07-25T14:20:47.960Z,36.56
2022-07-25T14:23:16.806Z,36.27
2022-07-25T14:25:45.466Z,35.80
2022-07-25T14:28:13.899Z,35.18
2022-07-25T14:30:42.635Z,34.60
2022-07-25T14:33:27.498Z,34.23
2022-07-25T14:35:59.771Z,33.96
2022-07-25T14:38:28.230Z,33.72
2022-07-25T14:40:57.243Z,33.49
2022-07-25T14:43:25.817Z,33.52
2022-07-25T14:45:54.526Z,33.59
2022-07-25T14:48:23.022Z,33.69
2022-07-25T14:50:51.782Z,33.72
2022-07-25T14:53:20.548Z,33.69
2022-07-25T14:55:49.052Z,33.65
2022-07-25T14:58:17.938Z,33.67
2022-07-25T15:00:46.493Z,33.70
2022-07-25T15:03:15.621Z,33.66
2022-07-25T15:05:44.816Z,33.58
2022-07-25T15:08:14.447Z,33.48
2022-07-25T15:10:42.801Z,33.40
2022-07-25T15:13:30.355Z,33.42
2022-07-25T15:16:00.337Z,33.56
2022-07-25T15:18:29.639Z,33.75
2022-07-25T15:20:58.330Z,33.82
2022-07-25T15:23:30.230Z,33.87
2022-07-25T15:26:02.342Z,34.02
2022-07-25T15:28:37.149Z,34.13
2022-07-25T15:31:06.572Z,34.14
2022-07-25T15:33:35.177Z,34.06
2022-07-25T15:36:03.771Z,33.97
2022-07-25T15:38:32.377Z,33.81
2022-07-25T15:41:00.762Z,33.64
2022-07-25T15:43:29.314Z,33.38
2022-07-25T15:45:58.118Z,33.13
2022-07-25T15:48:28.044Z,32.92
2022-07-25T15:50:59.075Z,32.69
2022-07-25T15:53:28.655Z,32.40
2022-07-25T15:55:57.355Z,32.19
2022-07-25T15:58:27.055Z,32.11
2022-07-25T16:00:55.760Z,32.08
2022-07-25T16:03:24.502Z,32.02
2022-07-25T16:05:55.700Z,31.95
2022-07-25T16:08:24.084Z,31.89
2022-07-25T16:10:53.044Z,31.92
2022-07-25T16:13:21.900Z,32.02
2022-07-25T16:15:50.343Z,32.08
2022-07-25T16:18:18.792Z,32.15
2022-07-25T16:20:47.313Z,32.26
2022-07-25T16:23:15.855Z,32.40
2022-07-25T16:25:44.199Z,32.46
2022-07-25T16:28:12.816Z,32.38
2022-07-25T16:30:41.502Z,32.18
2022-07-25T16:33:09.982Z,31.99
2022-07-25T16:35:38.567Z,31.92
2022-07-25T16:38:07.250Z,31.98
2022-07-25T16:40:36.040Z,32.10
2022-07-25T16:43:04.525Z,32.23
2022-07-25T16:45:33.234Z,32.34
2022-07-25T16:48:01.891Z,32.36
2022-07-25T16:50:30.272Z,32.31
2022-07-25T16:52:58.650Z,32.26
2022-07-25T16:55:27.335Z,32.20
2022-07-25T16:57:55.919Z,32.09
2022-07-25T17:00:24.623Z,31.99
2022-07-25T17:02:53.289Z,31.90
2022-07-25T17:05:21.859Z,31.92
2022-07-25T17:07:57.021Z,32.00
2022-07-25T17:10:28.604Z,32.12
2022-07-25T17:12:57.076Z,32.22
2022-07-25T17:15:25.732Z,32.33
2022-07-25T17:17:54.239Z,32.40
2022-07-25T17:20:22.632Z,32.38
2022-07-25T17:22:51.172Z,32.30
2022-07-25T17:25:19.595Z,32.19
2022-07-25T17:27:48.238Z,32.12
2022-07-25T17:30:16.616Z,32.01
2022-07-25T17:32:45.183Z,31.85
2022-07-25T17:35:13.784Z,31.74
2022-07-25T17:37:42.374Z,31.69
2022-07-25T17:40:11.371Z,31.67
2022-07-25T17:42:44.950Z,31.65
2022-07-25T17:45:15.569Z,31.63
2022-07-25T17:47:44.528Z,31.63
2022-07-25T17:50:13.254Z,31.66
2022-07-25T17:52:41.866Z,31.64
2022-07-25T17:55:12.179Z,31.58
2022-07-25T17:57:42.614Z,31.46
2022-07-25T18:00:13.112Z,31.35
2022-07-25T18:02:42.270Z,31.24
2022-07-25T18:05:11.157Z,31.10
2022-07-25T18:07:45.033Z,30.89
2022-07-25T18:10:13.613Z,30.61
2022-07-25T18:12:42.801Z,30.28
2022-07-25T18:15:12.548Z,29.95
2022-07-25T18:17:48.838Z,29.62
2022-07-25T18:20:18.112Z,29.35
2022-07-25T18:22:46.622Z,29.10
2022-07-25T18:25:15.434Z,28.85
2022-07-25T18:27:46.211Z,28.61
2022-07-25T18:30:15.468Z,28.38
2022-07-25T18:32:44.071Z,28.17
2022-07-25T18:35:13.293Z,27.96
2022-07-25T18:37:41.977Z,27.73
2022-07-25T18:40:11.468Z,27.53
2022-07-25T18:42:40.765Z,27.34
2022-07-25T18:45:10.161Z,27.16
2022-07-25T18:47:40.202Z,27.01
2022-07-25T18:50:09.582Z,26.85
2022-07-25T18:52:37.989Z,26.70
2022-07-25T18:55:09.004Z,26.54
2022-07-25T18:57:37.957Z,26.39
2022-07-25T19:00:09.540Z,26.24
2022-07-25T19:02:38.131Z,26.08
2022-07-25T19:05:08.923Z,25.93
2022-07-25T19:07:38.919Z,25.80
2022-07-25T19:10:07.774Z,25.68
2022-07-25T19:12:36.866Z,25.57
2022-07-25T19:15:06.468Z,25.44
2022-07-25T19:17:37.172Z,25.33
2022-07-25T19:20:06.685Z,25.24
2022-07-25T19:22:35.328Z,25.14
2022-07-25T19:25:08.443Z,25.05
2022-07-25T19:27:37.791Z,24.94
2022-07-25T19:30:08.092Z,24.85
2022-07-25T19:32:37.309Z,24.76
2022-07-25T19:35:06.906Z,24.69
2022-07-25T19:37:35.602Z,24.62
2022-07-25T19:40:06.472Z,24.55
2022-07-25T19:42:35.349Z,24.49
2022-07-25T19:45:04.952Z,24.45
2022-07-25T19:47:33.631Z,24.41
2022-07-25T19:50:02.316Z,24.36
2022-07-25T19:52:30.933Z,24.32
2022-07-25T19:55:00.499Z,24.29
2022-07-25T19:57:29.726Z,24.25
2022-07-25T19:59:58.322Z,24.23
2022-07-25T20:02:27.028Z,24.19
2022-07-25T20:04:55.783Z,24.16
2022-07-25T20:07:25.260Z,24.12
2022-07-25T20:09:54.151Z,24.09
2022-07-25T20:12:23.498Z,24.07
2022-07-25T20:14:52.441Z,24.03
2022-07-25T20:17:21.252Z,24.00
2022-07-25T20:19:49.816Z,23.96
2022-07-25T20:22:18.604Z,23.93
2022-07-25T20:24:47.269Z,23.90
2022-07-25T20:27:15.974Z,23.88
2022-07-25T20:29:45.017Z,23.86
2022-07-25T20:32:13.417Z,23.84
2022-07-25T20:34:41.820Z,23.82
2022-07-25T20:37:10.323Z,23.81
2022-07-25T20:39:39.300Z,23.79
2022-07-25T20:42:07.990Z,23.76
2022-07-25T20:44:36.505Z,23.74
2022-07-25T20:47:06.106Z,23.71
2022-07-25T20:49:36.753Z,23.69
2022-07-25T20:52:08.244Z,23.67
2022-07-25T20:54:37.189Z,23.69
2022-07-25T20:57:06.144Z,23.69
2022-07-25T20:59:35.115Z,23.69
2022-07-25T21:02:03.969Z,23.69
2022-07-25T21:04:32.431Z,23.70
2022-07-25T21:07:01.091Z,23.71
2022-07-25T21:09:34.804Z,23.72
2022-07-25T21:12:03.663Z,23.74
2022-07-25T21:14:32.076Z,23.77
2022-07-25T21:17:00.577Z,23.77
2022-07-25T21:19:29.438Z,23.78
2022-07-25T21:21:57.924Z,23.78
2022-07-25T21:24:26.426Z,23.79
2022-07-25T21:26:54.713Z,23.82
2022-07-25T21:29:23.154Z,23.84
2022-07-25T21:31:51.987Z,23.86
2022-07-25T21:34:22.754Z,23.88
2022-07-25T21:36:51.158Z,23.89
2022-07-25T21:39:19.739Z,23.91
2022-07-25T21:41:48.250Z,23.91
2022-07-25T21:44:24.212Z,23.90
2022-07-25T21:46:53.214Z,23.90
2022-07-25T21:49:41.336Z,23.90
2022-07-25T21:52:13.977Z,23.89
2022-07-25T21:54:43.730Z,23.88
2022-07-25T21:57:13.730Z,23.87
2022-07-25T21:59:43.759Z,23.85
2022-07-25T22:02:13.008Z,23.83
2022-07-25T22:04:41.926Z,23.80
2022-07-25T22:07:10.413Z,23.78
2022-07-25T22:09:38.816Z,23.76
2022-07-25T22:12:07.843Z,23.74
2022-07-25T22:14:37.797Z,23.71
2022-07-25T22:17:06.317Z,23.67
2022-07-25T22:19:35.456Z,23.64
2022-07-25T22:22:06.131Z,23.62
2022-07-25T22:24:34.790Z,23.59
2022-07-25T22:27:03.476Z,23.58
2022-07-25T22:29:31.987Z,23.56
2022-07-25T22:32:01.019Z,23.54
2022-07-25T22:34:29.864Z,23.51
2022-07-25T22:36:58.170Z,23.49
2022-07-25T22:39:26.575Z,23.46
2022-07-25T22:41:55.107Z,23.44
2022-07-25T22:44:23.488Z,23.43
2022-07-25T22:46:52.017Z,23.40
2022-07-25T22:49:20.700Z,23.38
2022-07-25T22:51:49.850Z,23.36
2022-07-25T22:54:18.738Z,23.34
2022-07-25T22:56:47.603Z,23.33
2022-07-25T22:59:16.929Z,23.31
2022-07-25T23:01:45.385Z,23.28
2022-07-25T23:04:14.355Z,23.27
2022-07-25T23:06:43.266Z,23.26
2022-07-25T23:09:13.709Z,23.25
2022-07-25T23:11:42.278Z,23.23
2022-07-25T23:14:10.742Z,23.21
2022-07-25T23:16:41.820Z,23.20
2022-07-25T23:19:10.775Z,23.19
2022-07-25T23:21:39.824Z,23.17
2022-07-25T23:24:08.192Z,23.17
2022-07-25T23:26:36.779Z,23.17
2022-07-25T23:29:05.455Z,23.15
2022-07-25T23:31:34.053Z,23.14
2022-07-25T23:34:02.613Z,23.12
2022-07-25T23:36:31.212Z,23.11
2022-07-25T23:38:59.780Z,23.10
2022-07-25T23:41:28.602Z,23.08
2022-07-25T23:43:59.500Z,23.06
2022-07-25T23:46:29.580Z,23.04
2022-07-25T23:49:00.249Z,23.01
2022-07-25T23:51:28.980Z,23.00
2022-07-25T23:53:57.607Z,22.99
2022-07-25T23:56:26.507Z,22.97
2022-07-25T23:58:55.091Z,22.96
